Nearby METAR Reports

 

KFNL - Ft Collins/Lovel, Colorado, USA
Distance from station: E 23mi, 37km
Updated: Wed, 13-Nov-2019 11:56am MST
Clear
Clear
 Wind from N
Wind: N 21 mph , 33 km/h, Gust: 25 mph , 41 km/h
Temperature: 57°F , 14°C
Dew Point: 23°F , -5°C
Humidity: 27%
Barometer: 29.98 inHg , 1015.2 hPa
Clouds: Clear
Visibility: 10 miles , 16 km
2019/11/13 18:56 KFNL 131856Z AUTO 01018G22KT 10SM CLR 14/M05 A2998 RMK AO2 SLP137 T01391050
KLMO - Longmont/Vbrand, Colorado, USA
Distance from station: SE 26mi, 41km
Updated: Wed, 13-Nov-2019 12:35pm MST
Clear
Clear
 Wind from E
Wind: E 15 mph , 24 km/h, Gust: 18 mph , 30 km/h
Temperature: 59°F , 15°C
Dew Point: 25°F , -4°C
Humidity: 27%
Barometer: 30.01 inHg , 1016.3 hPa
Clouds: Clear
Visibility: 10 miles , 16 km
2019/11/13 19:35 KLMO 131935Z AUTO 10013G16KT 10SM CLR 15/M04 A3001 RMK AO2 T01541044
 
KBDU - Boulder Muni, Colorado, USA
Distance from station: SSE 32mi, 52km
Updated: Wed, 13-Nov-2019 12:30pm MST
Partly cloudy
Partly cloudy
 Wind from E
Wind: E 10 mph , 17 km/h, Gust: 16 mph , 26 km/h
Temperature: 57°F , 14°C
Dew Point: 25°F , -4°C
Humidity: 29%
Barometer: 29.99 inHg , 1015.6 hPa
Clouds: Partly cloudy
Visibility: 10 miles , 16 km
Cloud details: Partly cloudy 9000 ft
2019/11/13 19:30 KBDU 131930Z AUTO 09009G14KT 072V132 10SM SCT090 14/M04 A2999 RMK AO2
KEIK - Erie Muni, Colorado, USA
Distance from station: SE 38mi, 61km
Updated: Wed, 13-Nov-2019 12:35pm MST
Clear
Clear
 Wind from E
Wind: E 15 mph , 24 km/h, Gust: 20 mph , 31 km/h
Temperature: 57°F , 14°C
Dew Point: 19°F , -7°C
Humidity: 23%
Barometer: 30.05 inHg , 1017.6 hPa
Clouds: Clear
Visibility: 10 miles , 16 km
2019/11/13 19:35 KEIK 131935Z AUTO 10013G17KT 10SM CLR 14/M07 A3005 RMK AO2 T01371066
 
KBJC - Broomfield/Jeffc, Colorado, USA
Distance from station: SSE 44mi, 70km
Updated: Wed, 13-Nov-2019 11:45am MST
Partly cloudy
Partly cloudy
 Wind from E
Wind: E 13 mph , 20 km/h
Temperature: 55°F , 13°C
Dew Point: 23°F , -5°C
Humidity: 28%
Barometer: 30.03 inHg , 1016.9 hPa
Clouds: Partly cloudy
Visibility: 10 miles , 16 km
Cloud details: Few Clouds 10000 ft
Partly cloudy 20000 ft
2019/11/13 18:45 KBJC 131845Z 10011KT 10SM FEW100 SCT200 13/M05 A3003
KGXY - Greeley/Weld, Colorado, USA
Distance from station: E 44mi, 71km
Updated: Wed, 13-Nov-2019 11:56am MST
Clear
Clear
 Wind from NNE
Wind: NNE 15 mph , 24 km/h, Gust: 24 mph , 39 km/h
Temperature: 55°F , 13°C
Dew Point: 25°F , -4°C
Humidity: 31%
Barometer: 30.00 inHg , 1015.9 hPa
Clouds: Clear
Visibility: 10 miles , 16 km
2019/11/13 18:56 KGXY 131856Z AUTO 02013G21KT 10SM CLR 13/M04 A3000 RMK AO2 SLP168 T01331039
 
K33V - Walden, Colorado, USA
Distance from station: WNW 48mi, 77km
Updated: Wed, 13-Nov-2019 12:15pm MST
Partly cloudy
Partly cloudy
 Wind from SW
Wind: SW 15 mph , 24 km/h, Gust: 22 mph , 35 km/h
Temperature: 45°F , 7°C
Wind Chill: 38°F , 3°C
Dew Point: 16°F , -9°C
Humidity: 31%
Barometer: 30.12 inHg , 1020 hPa
Clouds: Partly cloudy
Visibility: 10 miles , 16 km
Cloud details: Partly cloudy 5000 ft
2019/11/13 19:15 K33V 131915Z AUTO 23013G19KT 10SM SCT050 07/M09 A3012 RMK AO1
K0CO - Berthoud Pass, Colorado, USA
Distance from station: SSW 49mi, 79km
Updated: Wed, 13-Nov-2019 12:30pm MST
Clear
Clear
 Wind from NW
Wind: NW 26 mph , 43 km/h, Gust: 39 mph , 63 km/h
Temperature: 23°F , -5°C
Wind Chill: 6°F , -14°C
Dew Point: 7°F , -14°C
Humidity: 50%
Barometer: 30.14 inHg , 1020.7 hPa
Clouds: Clear
Visibility: 10 miles , 16 km
2019/11/13 19:30 K0CO 131930Z AUTO 32023G34KT 10SM CLR M05/M14 A3014 RMK AO2